Startpagina
METAR-TAF:

Vliegvelden :

Oostende, België

Internationale Luchthaven Oostende-Brugge

breedte: 51-12N, lengte: 002-52E, hoogte: 4 m

Actueel weer

Dit bericht is 32 minuten geleden gemaakt, om 13:20 UTC
Wind 8 kt uit het oosten
Temperatuur 6°C
Vochtigheid 70%
Druk 995 hPa
Zicht 10 km of meer
Weinig wolken op 2000 ft

METAR: EBOS 121320Z 10008KT 9999 FEW020 06/01 Q0995 NOSIG

Tijdstip: 14:52 (13:52 UTC)

Verwachting

Dit bericht is 2 uur en het 32 minuten geleden gemaakt, om 11:20 UTC
Verwachting geldig van 12 om 12 UTC tot 13 om 18 UTC
Wind 10 kt uit het oosten
Zicht 10 km of meer
Verspreide wolken op 2000 ft
Wijzigt naar
van 13 om 11 UTC tot 13 om 13 UTC
Gebroken wolken op 800 ft
Kans 30% :
Tijdelijke
van 13 om 13 UTC tot 13 om 18 UTC
Zicht: 3000 m
Gebroken wolken op 400 ft
lichte regen, motregen, nevel

TAF: EBOS 121120Z 1212/1318 10010KT 9999 SCT020 BECMG 1311/1313 BKN008 PROB30 TEMPO 1313/1318 3000 -RADZ BR BKN004

METAR-TAF

Waarnemingen en weersverwachtingen van meer dan 4000 vliegvelden (METAR en TAF).

De beschikbare stations zijn de gele en rode punten op de kaart.

Ga met uw muis naar het station om de naam te zien.

Klik dan om waarnemingen en weersverwachtingen te zien.

kaart wijzigen: klik op de groene knoppen met een zwart kruis om in te zoomen, op de groene knop met een streepje om uit te zoomen of op de groene pijlen voor aangrenzende kaarten.


METAR-TAF: